Croton On Hudson, NY (10521)

12:52 PM EDT on September 02, 2014 (GMT -0400)
Blue Mountain Reservation | Change Station
CLOSE
Current Station
Personal Weather Station
Location: Cortlandt Manor, NY
Elevation: 256 ft
Nearby Weather Stations
Active Advisory: Air Quality Alert

Elev 256 ft 41.26 °N, 73.91 °W | Updated 13 seconds ago

Partly Cloudy
Partly Cloudy
87.3 °F
Feels Like 97 °F
N
0.0
Wind Variable Wind from ENE
Gusts 1.0 mph

Today
High -- | Low -- °F
--% Chance of Precip.
Yesterday
High -- | Low -- °F
Precip. -- in
6:23 AM 7:26 PM
First Quarter, 53% visible
Pressure 29.89 in
Visibility 10.0 miles
Clouds Few 3500 ft
Heat Index 97 °F
Dew Point 75 °F
Humidity 67%
Rainfall 0.00 in
Snow Depth Not available.
UV 8 out of 12
Pollen 8.40 out of 12
Air Quality Not available.
Flu Activity Not available.
METAR KHPN 021556Z 21005KT 10SM FEW035 30/22 A2991 RMK AO2 SLP122 T03000222

More Conditions Fewer Conditions

Pressure 29.89 in
Visibility 10.0 miles
Clouds Few 3500 ft
Heat Index 97 °F
Dew Point 75 °F
Humidity 67%
Rainfall 0.00 in
Snow Depth Not available.
UV 8 out of 12
Pollen 8.40 out of 12
Air Quality Not available.
Flu Activity Not available.
METAR KHPN 021556Z 21005KT 10SM FEW035 30/22 A2991 RMK AO2 SLP122 T03000222

More Conditions Fewer Conditions

10-Day Weather Forecast

Almanac

Astronomy

Sep. 02, 2014 Rise Set
Actual Time 6:23 AM EDT 7:26 PM EDT
Civil Twilight 5:54 AM EDT 7:55 PM EDT
Nautical Twilight 5:21 AM EDT 8:28 PM EDT
Astronomical Twilight 4:45 AM EDT 9:03 PM EDT
Moon 2:09 PM EDT No Moon Set
Length of Visible Light 14h 00m
Length of Day
13h 03m
Tomorrow will be 2m 39s shorter.
First Quarter, 53% of the Moon is Illuminated
Today
First Quarter
Sep 8
Full
Sep 15
Last Quarter
Sep 24
New
Oct 1
First Quarter

Today's Extremes

State Highs State Lows

Community

WunderPhotos

Upload Photos

1,749,716 photos uploaded!

WunderBlogs® & News

Nearby

Air Quality

  Air Quality AQ Index Pollutant
Yesterday Good
OZONE
Yesterday Good
PM2.5
Tuesday Unhealthy for Sensitive Groups
OZONE
Tuesday Moderate
PM2.5
Wednesday Good
PM2.5

Snow Depth

Station Depth Elevation
No new snow has been reported.

Earthquake Activity

City Distance Mag. Time & Date
No recent earthquake activity has been reported nearby.
Minimum magnitude displayed is 2.5.

Coastal Water Temperatures

Place Temperature
Bridgeport, CT 75.9 °F

Nearby Weather Stations